createdAt,value
2018-01-08T00:00:32.116Z,95.00
2018-01-08T00:02:58.974Z,94.90
2018-01-08T00:05:25.867Z,94.90
2018-01-08T00:07:52.729Z,95.10
2018-01-08T00:10:19.578Z,95.60
2018-01-08T00:12:46.455Z,95.90
2018-01-08T00:15:13.325Z,95.80
2018-01-08T00:17:40.178Z,95.60
2018-01-08T00:20:07.802Z,95.40
2018-01-08T00:22:34.666Z,95.40
2018-01-08T00:25:01.537Z,95.60
2018-01-08T00:27:28.483Z,95.50
2018-01-08T00:29:55.335Z,95.70
2018-01-08T00:32:22.198Z,96.00
2018-01-08T00:34:49.781Z,96.20
2018-01-08T00:37:16.675Z,96.20
2018-01-08T00:39:43.560Z,95.90
2018-01-08T00:42:10.446Z,95.90
2018-01-08T00:44:37.303Z,95.80
2018-01-08T00:47:04.913Z,95.80
2018-01-08T00:49:31.799Z,95.80
2018-01-08T00:51:59.422Z,95.70
2018-01-08T00:54:26.310Z,95.70
2018-01-08T00:56:53.929Z,95.60
2018-01-08T00:59:20.756Z,95.60
2018-01-08T01:01:47.626Z,95.60
2018-01-08T01:04:14.470Z,95.30
2018-01-08T01:06:42.098Z,95.50
2018-01-08T01:09:08.948Z,95.80
2018-01-08T01:11:35.815Z,95.50
2018-01-08T01:14:02.663Z,95.50
2018-01-08T01:16:30.322Z,95.50
2018-01-08T01:18:57.215Z,95.40
2018-01-08T01:21:24.083Z,95.40
2018-01-08T01:23:51.642Z,95.10
2018-01-08T01:26:18.486Z,95.10
2018-01-08T01:28:45.360Z,94.90
2018-01-08T01:31:12.222Z,95.10
2018-01-08T01:33:39.086Z,95.20
2018-01-08T01:36:05.983Z,95.10
2018-01-08T01:38:32.854Z,95.10
2018-01-08T01:40:59.703Z,94.90
2018-01-08T01:43:26.574Z,95.00
2018-01-08T01:45:53.462Z,94.70
2018-01-08T01:48:20.293Z,95.00
2018-01-08T01:50:47.206Z,95.10
2018-01-08T01:53:14.078Z,95.20
2018-01-08T01:55:40.971Z,95.00
2018-01-08T01:58:08.591Z,95.90
2018-01-08T02:00:35.450Z,95.90
2018-01-08T02:03:03.070Z,95.60
2018-01-08T02:05:30.725Z,95.60
2018-01-08T02:07:57.590Z,95.60
2018-01-08T02:10:24.486Z,95.50
2018-01-08T02:12:52.115Z,95.50
2018-01-08T02:15:19.011Z,95.50
2018-01-08T02:17:45.876Z,95.00
2018-01-08T02:20:12.762Z,95.00
2018-01-08T02:22:40.366Z,96.20
2018-01-08T02:25:07.270Z,96.20
2018-01-08T02:27:34.870Z,95.90
2018-01-08T02:30:01.739Z,95.90
2018-01-08T02:32:28.626Z,95.70
2018-01-08T02:34:56.230Z,95.30
2018-01-08T02:37:23.094Z,95.30
2018-01-08T02:39:49.958Z,95.70
2018-01-08T02:42:16.783Z,95.50
2018-01-08T02:44:43.659Z,95.60
2018-01-08T02:47:11.282Z,95.70
2018-01-08T02:49:38.134Z,95.70
2018-01-08T02:52:04.987Z,95.60
2018-01-08T02:54:31.846Z,95.40
2018-01-08T02:56:59.454Z,95.80
2018-01-08T02:59:26.322Z,95.70
2018-01-08T03:01:53.301Z,95.90
2018-01-08T03:04:20.902Z,96.10
2018-01-08T03:06:47.789Z,96.00
2018-01-08T03:09:14.638Z,95.80
2018-01-08T03:11:42.260Z,96.00
2018-01-08T03:14:09.101Z,96.00
2018-01-08T03:16:35.958Z,96.00
2018-01-08T03:19:02.877Z,96.40
2018-01-08T03:21:29.751Z,96.20
2018-01-08T03:23:56.648Z,95.90
2018-01-08T03:26:23.488Z,95.70
2018-01-08T03:28:50.339Z,96.00
2018-01-08T03:31:17.178Z,95.90
2018-01-08T03:33:44.047Z,95.60
2018-01-08T03:36:10.916Z,96.00
2018-01-08T03:38:37.721Z,95.80
2018-01-08T03:41:04.566Z,95.70
2018-01-08T03:43:31.460Z,95.70
2018-01-08T03:45:58.304Z,95.50
2018-01-08T03:48:25.148Z,95.30
2018-01-08T03:50:52.022Z,95.40
2018-01-08T03:53:18.854Z,95.50
2018-01-08T03:55:45.718Z,95.60
2018-01-08T03:58:12.590Z,95.60
2018-01-08T04:00:40.193Z,95.70
2018-01-08T04:03:07.063Z,95.70
2018-01-08T04:05:33.937Z,95.40
2018-01-08T04:08:01.602Z,96.10
2018-01-08T04:10:28.441Z,96.10
2018-01-08T04:12:55.306Z,96.10
2018-01-08T04:15:22.152Z,96.00
2018-01-08T04:17:49.892Z,95.60
2018-01-08T04:20:17.480Z,95.70
2018-01-08T04:22:45.102Z,95.40
2018-01-08T04:25:11.994Z,95.40
2018-01-08T04:27:38.855Z,95.30
2018-01-08T04:30:05.733Z,96.00
2018-01-08T04:32:32.575Z,95.90
2018-01-08T04:34:59.438Z,95.90
2018-01-08T04:37:26.275Z,95.70
2018-01-08T04:39:53.237Z,95.70
2018-01-08T04:42:20.841Z,95.50
2018-01-08T04:44:47.698Z,95.50
2018-01-08T04:47:14.557Z,95.50
2018-01-08T04:49:41.371Z,95.30
2018-01-08T04:52:08.198Z,95.20
2018-01-08T04:54:35.106Z,95.70
2018-01-08T04:57:01.966Z,95.90
2018-01-08T04:59:28.837Z,96.00
2018-01-08T05:01:55.714Z,96.00
2018-01-08T05:04:22.546Z,95.70
2018-01-08T05:06:49.452Z,95.90
2018-01-08T05:09:16.998Z,96.90
2018-01-08T05:11:44.614Z,97.00
2018-01-08T05:14:11.522Z,97.00
2018-01-08T05:16:38.595Z,96.80
2018-01-08T05:19:05.578Z,96.50
2018-01-08T05:21:33.406Z,97.00
2018-01-08T05:24:00.289Z,97.00
2018-01-08T05:26:28.095Z,97.40
2018-01-08T05:28:55.733Z,97.30
2018-01-08T05:31:22.622Z,97.20
2018-01-08T05:33:49.483Z,96.90
2018-01-08T05:36:16.426Z,97.00
2018-01-08T05:38:43.693Z,96.80
2018-01-08T05:41:10.577Z,96.60
2018-01-08T05:43:37.486Z,96.10
2018-01-08T05:46:04.330Z,96.10
2018-01-08T05:48:32.139Z,95.70
2018-01-08T05:50:59.294Z,95.70
2018-01-08T05:53:26.434Z,95.80
2018-01-08T05:55:53.403Z,96.00
2018-01-08T05:58:20.237Z,95.90
2018-01-08T06:00:47.082Z,95.70
2018-01-08T06:03:13.979Z,95.90
2018-01-08T06:05:41.662Z,96.20
2018-01-08T06:08:08.740Z,96.20
2018-01-08T06:10:35.681Z,95.90
2018-01-08T06:13:02.567Z,96.00
2018-01-08T06:15:29.451Z,95.90
2018-01-08T06:17:56.290Z,95.90
2018-01-08T06:20:23.255Z,96.40
2018-01-08T06:22:50.086Z,96.90
2018-01-08T06:25:16.972Z,97.00
2018-01-08T06:27:44.570Z,96.50
2018-01-08T06:30:11.426Z,96.50
2018-01-08T06:32:38.286Z,96.30
2018-01-08T06:35:05.135Z,96.40
2018-01-08T06:37:32.026Z,96.30
2018-01-08T06:39:59.606Z,96.30
2018-01-08T06:42:27.194Z,96.90
2018-01-08T06:44:54.050Z,96.90
2018-01-08T06:47:20.914Z,96.90
2018-01-08T06:49:47.758Z,96.80
2018-01-08T06:52:14.632Z,96.40
2018-01-08T06:54:41.566Z,95.90
2018-01-08T06:57:09.158Z,95.80
2018-01-08T06:59:36.066Z,95.80
2018-01-08T07:02:03.658Z,95.90
2018-01-08T07:04:30.558Z,95.90
2018-01-08T07:06:57.438Z,96.10
2018-01-08T07:09:24.277Z,96.00
2018-01-08T07:11:51.131Z,96.10
2018-01-08T07:14:17.990Z,96.00
2018-01-08T07:16:44.863Z,95.90
2018-01-08T07:19:12.510Z,95.90
2018-01-08T07:21:39.434Z,95.80
2018-01-08T07:24:06.270Z,96.00
2018-01-08T07:26:33.167Z,96.30
2018-01-08T07:29:00.758Z,96.20
2018-01-08T07:31:27.597Z,96.20
2018-01-08T07:33:55.182Z,96.30
2018-01-08T07:36:22.086Z,96.30
2018-01-08T07:38:49.698Z,95.80
2018-01-08T07:41:16.598Z,95.80
2018-01-08T07:43:43.411Z,95.60
2018-01-08T07:46:10.337Z,95.70
2018-01-08T07:48:37.198Z,95.60
2018-01-08T07:51:04.081Z,95.60
2018-01-08T07:53:31.504Z,95.50
2018-01-08T07:55:59.203Z,95.20
2018-01-08T07:58:26.249Z,95.20
2018-01-08T08:00:53.913Z,95.20
2018-01-08T08:03:21.509Z,94.90
2018-01-08T08:05:48.358Z,94.90
2018-01-08T08:08:15.230Z,94.70
2018-01-08T08:10:42.837Z,94.40
2018-01-08T08:13:09.734Z,94.30
2018-01-08T08:15:36.621Z,93.90
2018-01-08T08:18:04.382Z,93.70
2018-01-08T08:20:31.231Z,93.70
2018-01-08T08:22:58.038Z,92.90
2018-01-08T08:25:25.011Z,92.70
2018-01-08T08:27:51.886Z,92.90
2018-01-08T08:30:18.755Z,92.20
2018-01-08T08:32:45.616Z,92.20
2018-01-08T08:35:13.266Z,92.90
2018-01-08T08:37:40.098Z,92.80
2018-01-08T08:40:06.938Z,92.60
2018-01-08T08:42:33.824Z,92.40
2018-01-08T08:45:00.682Z,92.40
2018-01-08T08:47:27.554Z,92.60
2018-01-08T08:49:54.409Z,92.30
2018-01-08T08:52:22.022Z,92.10
2018-01-08T08:54:48.868Z,92.00
2018-01-08T08:57:15.737Z,92.40
2018-01-08T08:59:42.577Z,92.40
2018-01-08T09:02:09.422Z,92.10
2018-01-08T09:04:36.308Z,92.10
2018-01-08T09:07:03.878Z,91.40
2018-01-08T09:09:31.493Z,91.00
2018-01-08T09:11:58.322Z,91.00
2018-01-08T09:14:25.185Z,90.80
2018-01-08T09:16:52.834Z,90.70
2018-01-08T09:19:19.674Z,90.70
2018-01-08T09:21:46.546Z,91.10
2018-01-08T09:24:13.374Z,91.50
2018-01-08T09:26:40.303Z,91.00
2018-01-08T09:29:07.142Z,90.90
2018-01-08T09:31:33.989Z,91.30
2018-01-08T09:34:00.859Z,91.30
2018-01-08T09:36:28.466Z,90.60
2018-01-08T09:38:55.338Z,90.60
2018-01-08T09:41:22.212Z,90.20
2018-01-08T09:43:49.094Z,90.30
2018-01-08T09:46:16.078Z,90.30
2018-01-08T09:48:42.966Z,89.80
2018-01-08T09:51:09.800Z,88.90
2018-01-08T09:53:37.410Z,87.10
2018-01-08T09:56:04.254Z,87.10
2018-01-08T09:58:31.106Z,86.60
2018-01-08T10:00:57.981Z,87.30
2018-01-08T10:03:38.034Z,88.40
2018-01-08T10:06:18.066Z,88.10
2018-01-08T10:08:57.143Z,88.10
2018-01-08T10:11:36.845Z,89.50
2018-01-08T10:14:15.871Z,89.60
2018-01-08T10:16:54.874Z,89.70
2018-01-08T10:19:34.021Z,89.50
2018-01-08T10:22:00.903Z,90.00
2018-01-08T10:24:27.750Z,89.00
2018-01-08T10:26:54.701Z,89.20
2018-01-08T10:29:21.590Z,88.90
2018-01-08T10:31:48.488Z,88.90
2018-01-08T10:34:16.219Z,88.20
2018-01-08T10:36:43.103Z,88.20
2018-01-08T10:39:10.726Z,84.50
2018-01-08T10:41:43.589Z,84.50
2018-01-08T10:44:16.559Z,83.10
2018-01-08T10:46:49.476Z,81.50
2018-01-08T10:49:23.270Z,80.70
2018-01-08T10:51:50.846Z,81.70
2018-01-08T10:54:17.742Z,81.60
2018-01-08T10:56:44.650Z,82.00
2018-01-08T10:59:11.588Z,82.00
2018-01-08T11:01:45.312Z,83.40
2018-01-08T11:04:12.206Z,84.50
2018-01-08T11:06:39.078Z,85.50
2018-01-08T11:09:06.800Z,83.00
2018-01-08T11:11:33.714Z,82.30
2018-01-08T11:14:00.578Z,81.60
2018-01-08T11:16:27.510Z,81.80
2018-01-08T11:18:54.375Z,82.20
2018-01-08T11:21:21.282Z,81.80
2018-01-08T11:23:48.150Z,81.60
2018-01-08T11:26:15.034Z,79.90
2018-01-08T11:28:42.642Z,78.60
2018-01-08T11:31:09.487Z,78.60
2018-01-08T11:33:36.394Z,76.80
2018-01-08T11:36:04.030Z,74.30
2018-01-08T11:38:30.965Z,74.10
2018-01-08T11:40:57.882Z,73.90
2018-01-08T11:43:24.775Z,72.60
2018-01-08T11:45:51.693Z,73.20
2018-01-08T11:48:18.566Z,73.60
2018-01-08T11:50:45.446Z,74.50
2018-01-08T11:53:12.345Z,72.20
2018-01-08T11:55:39.266Z,65.40
2018-01-08T11:58:06.878Z,66.60
2018-01-08T12:00:34.498Z,68.50
2018-01-08T12:03:01.403Z,68.50
2018-01-08T12:05:28.286Z,70.50
2018-01-08T12:07:55.181Z,72.90
2018-01-08T12:10:22.096Z,74.80
2018-01-08T12:12:49.784Z,73.30
2018-01-08T12:15:16.691Z,73.20
2018-01-08T12:17:43.546Z,66.60
2018-01-08T12:20:10.415Z,65.00
2018-01-08T12:22:37.997Z,63.80
2018-01-08T12:25:04.936Z,63.70
2018-01-08T12:27:31.877Z,61.20
2018-01-08T12:29:58.816Z,62.20
2018-01-08T12:32:26.477Z,65.60
2018-01-08T12:34:53.381Z,65.50
2018-01-08T12:37:20.362Z,69.10
2018-01-08T12:39:47.959Z,72.60
2018-01-08T12:42:14.809Z,72.60
2018-01-08T12:44:41.710Z,72.20
2018-01-08T12:47:09.262Z,71.60
2018-01-08T12:49:36.874Z,72.60
2018-01-08T12:52:03.758Z,72.60
2018-01-08T12:54:30.621Z,73.60
2018-01-08T12:56:57.486Z,75.20
2018-01-08T12:59:24.330Z,77.00
2018-01-08T13:01:51.994Z,79.80
2018-01-08T13:04:18.886Z,80.50
2018-01-08T13:06:46.520Z,81.90
2018-01-08T13:09:13.390Z,81.90
2018-01-08T13:11:41.019Z,84.50
2018-01-08T13:14:07.906Z,84.40
2018-01-08T13:16:35.487Z,85.70
2018-01-08T13:19:03.083Z,86.20
2018-01-08T13:21:29.998Z,86.20
2018-01-08T13:23:57.682Z,87.90
2018-01-08T13:26:24.577Z,88.40
2018-01-08T13:28:52.206Z,88.60
2018-01-08T13:31:19.202Z,88.40
2018-01-08T13:33:46.090Z,88.50
2018-01-08T13:36:12.942Z,88.70
2018-01-08T13:38:39.842Z,89.20
2018-01-08T13:41:06.733Z,89.50
2018-01-08T13:43:33.639Z,90.00
2018-01-08T13:46:00.528Z,90.10
2018-01-08T13:48:27.404Z,90.20
2018-01-08T13:50:54.309Z,90.00
2018-01-08T13:53:21.194Z,88.90
2018-01-08T13:55:48.127Z,88.10
2018-01-08T13:58:15.793Z,87.90
2018-01-08T14:00:42.687Z,87.90
2018-01-08T14:03:09.554Z,87.70
2018-01-08T14:05:36.466Z,88.30
2018-01-08T14:08:03.349Z,89.10
2018-01-08T14:10:31.000Z,89.10
2018-01-08T14:12:57.903Z,89.10
2018-01-08T14:15:24.815Z,88.90
2018-01-08T14:17:52.386Z,89.40
2018-01-08T14:20:19.309Z,89.30
2018-01-08T14:22:46.946Z,89.20
2018-01-08T14:25:14.646Z,89.40
2018-01-08T14:27:42.234Z,88.90
2018-01-08T14:30:09.154Z,88.70
2018-01-08T14:32:36.769Z,89.00
2018-01-08T14:35:03.694Z,89.00
2018-01-08T14:37:30.611Z,89.20
2018-01-08T14:39:57.506Z,89.70
2018-01-08T14:42:24.355Z,90.00
2018-01-08T14:44:51.203Z,90.00
2018-01-08T14:47:18.050Z,90.20
2018-01-08T14:49:45.655Z,91.40
2018-01-08T14:52:12.518Z,91.40
2018-01-08T14:54:39.446Z,91.70
2018-01-08T14:57:06.326Z,92.00
2018-01-08T14:59:33.206Z,92.20
2018-01-08T15:02:00.115Z,92.50
2018-01-08T15:04:27.183Z,93.00
2018-01-08T15:06:54.943Z,93.40
2018-01-08T15:09:21.927Z,93.00
2018-01-08T15:11:49.190Z,93.30
2018-01-08T15:14:16.195Z,93.30
2018-01-08T15:16:43.155Z,93.50
2018-01-08T15:19:10.746Z,93.50
2018-01-08T15:21:37.645Z,93.50
2018-01-08T15:24:05.319Z,93.90
2018-01-08T15:26:32.914Z,93.80
2018-01-08T15:28:59.766Z,93.80
2018-01-08T15:31:26.830Z,94.00
2018-01-08T15:33:54.442Z,94.30
2018-01-08T15:36:21.539Z,94.30
2018-01-08T15:38:48.474Z,94.60
2018-01-08T15:41:15.337Z,94.80
2018-01-08T15:43:42.962Z,94.90
2018-01-08T15:46:10.592Z,94.60
2018-01-08T15:48:37.450Z,94.80
2018-01-08T15:51:04.275Z,95.20
2018-01-08T15:53:31.155Z,95.10
2018-01-08T15:55:58.042Z,95.10
2018-01-08T15:58:25.650Z,95.20
2018-01-08T16:00:52.477Z,95.20
2018-01-08T16:03:20.454Z,95.80
2018-01-08T16:05:48.273Z,95.60
2018-01-08T16:08:16.178Z,95.90
2018-01-08T16:10:43.098Z,95.90
2018-01-08T16:13:10.675Z,95.80
2018-01-08T16:15:37.482Z,95.70
2018-01-08T16:18:04.335Z,95.90
2018-01-08T16:20:31.190Z,95.30
2018-01-08T16:23:06.267Z,95.00
2018-01-08T16:25:33.290Z,95.00
2018-01-08T16:28:00.188Z,94.70
2018-01-08T16:30:27.038Z,94.50
2018-01-08T16:32:53.893Z,94.60
2018-01-08T16:35:20.730Z,94.40
2018-01-08T16:37:47.558Z,94.60
2018-01-08T16:40:14.390Z,94.60
2018-01-08T16:42:41.239Z,94.60
2018-01-08T16:45:08.074Z,94.40
2018-01-08T16:47:34.987Z,94.20
2018-01-08T16:50:01.840Z,94.50
2018-01-08T16:52:28.694Z,94.60
2018-01-08T16:54:55.589Z,94.30
2018-01-08T16:57:23.321Z,94.50
2018-01-08T16:59:50.249Z,94.50
2018-01-08T17:02:17.097Z,94.70
2018-01-08T17:04:43.946Z,94.70
2018-01-08T17:07:10.815Z,94.70
2018-01-08T17:09:38.432Z,94.50
2018-01-08T17:12:05.296Z,94.40
2018-01-08T17:14:32.942Z,94.50
2018-01-08T17:16:59.873Z,94.50
2018-01-08T17:19:26.734Z,94.40
2018-01-08T17:21:53.635Z,94.20
2018-01-08T17:24:20.510Z,94.40
2018-01-08T17:26:47.515Z,94.20
2018-01-08T17:29:14.368Z,94.50
2018-01-08T17:31:41.994Z,94.40
2018-01-08T17:34:08.878Z,94.40
2018-01-08T17:36:35.726Z,94.40
2018-01-08T17:39:02.654Z,94.50
2018-01-08T17:41:29.563Z,94.70
2018-01-08T17:43:56.473Z,94.60
2018-01-08T17:46:23.386Z,95.00
2018-01-08T17:48:50.241Z,94.70
2018-01-08T17:51:17.106Z,95.00
2018-01-08T17:53:43.997Z,95.20
2018-01-08T17:56:11.618Z,95.30
2018-01-08T17:58:39.124Z,95.30
2018-01-08T18:01:06.778Z,95.20
2018-01-08T18:03:34.646Z,95.40
2018-01-08T18:06:01.758Z,95.40
2018-01-08T18:08:28.707Z,95.30
2018-01-08T18:10:56.354Z,95.40
2018-01-08T18:13:24.366Z,95.40
2018-01-08T18:15:51.318Z,95.50
2018-01-08T18:18:19.087Z,95.50
2018-01-08T18:20:46.211Z,95.50
2018-01-08T18:23:13.118Z,95.90
2018-01-08T18:25:40.030Z,95.80
2018-01-08T18:28:06.942Z,95.50
2018-01-08T18:30:34.567Z,95.70
2018-01-08T18:33:02.314Z,95.60
2018-01-08T18:35:29.246Z,95.50
2018-01-08T18:37:56.967Z,95.90
2018-01-08T18:40:23.934Z,95.80
2018-01-08T18:42:50.850Z,95.70
2018-01-08T18:45:17.734Z,95.30
2018-01-08T18:47:44.738Z,95.40
2018-01-08T18:50:12.386Z,95.80
2018-01-08T18:52:39.378Z,95.80
2018-01-08T18:55:06.471Z,96.00
2018-01-08T18:57:33.349Z,95.90
2018-01-08T19:00:00.299Z,95.90
2018-01-08T19:02:27.329Z,96.00
2018-01-08T19:04:54.201Z,96.00
2018-01-08T19:07:21.094Z,96.30
2018-01-08T19:09:48.267Z,96.30
2018-01-08T19:12:15.155Z,96.00
2018-01-08T19:14:42.247Z,96.50
2018-01-08T19:17:09.269Z,96.50
2018-01-08T19:19:36.294Z,96.10
2018-01-08T19:22:03.418Z,96.10
2018-01-08T19:24:30.309Z,96.20
2018-01-08T19:26:57.198Z,96.10
2018-01-08T19:29:24.070Z,96.50
2018-01-08T19:31:51.370Z,96.50
2018-01-08T19:34:18.410Z,96.30
2018-01-08T19:39:19.992Z,96.60
2018-01-08T19:41:46.974Z,96.40
2018-01-08T19:44:13.976Z,96.50
2018-01-08T19:46:40.924Z,96.60
2018-01-08T19:49:08.158Z,96.50
2018-01-08T19:51:35.231Z,96.50
2018-01-08T19:54:02.397Z,97.10
2018-01-08T19:56:29.690Z,97.50
2018-01-08T19:58:56.696Z,97.70
2018-01-08T20:01:23.598Z,97.60
2018-01-08T20:03:50.622Z,97.80
2018-01-08T20:06:18.314Z,97.90
2018-01-08T20:08:45.318Z,97.90
2018-01-08T20:11:12.291Z,97.50
2018-01-08T20:13:40.134Z,97.50
2018-01-08T20:16:07.504Z,97.50
2018-01-08T20:18:34.470Z,97.50
2018-01-08T20:21:01.950Z,97.30
2018-01-08T20:23:29.136Z,97.70
2018-01-08T20:25:56.126Z,97.90
2018-01-08T20:28:23.030Z,97.90
2018-01-08T20:30:50.035Z,97.80
2018-01-08T20:33:17.957Z,97.70
2018-01-08T20:35:45.219Z,97.30
2018-01-08T20:38:13.018Z,97.20
2018-01-08T20:40:40.018Z,97.20
2018-01-08T20:43:07.742Z,97.40
2018-01-08T20:45:35.441Z,97.00
2018-01-08T20:48:02.349Z,97.00
2018-01-08T20:50:29.238Z,97.10
2018-01-08T20:52:56.117Z,96.90
2018-01-08T20:55:23.185Z,96.80
2018-01-08T20:57:50.275Z,97.00
2018-01-08T21:00:18.295Z,96.90
2018-01-08T21:02:45.343Z,96.90
2018-01-08T21:05:12.379Z,97.10
2018-01-08T21:07:39.385Z,97.40
2018-01-08T21:10:06.419Z,97.20
2018-01-08T21:12:33.519Z,97.10
2018-01-08T21:15:01.198Z,97.00
2018-01-08T21:17:28.226Z,97.00
2018-01-08T21:19:56.082Z,97.40
2018-01-08T21:22:23.093Z,97.00
2018-01-08T21:24:50.122Z,96.80
2018-01-08T21:27:17.127Z,96.90
2018-01-08T21:29:44.137Z,96.60
2018-01-08T21:32:11.746Z,96.20
2018-01-08T21:34:39.222Z,96.20
2018-01-08T21:37:06.310Z,96.20
2018-01-08T21:39:33.297Z,96.00
2018-01-08T21:42:00.201Z,96.30
2018-01-08T21:44:27.897Z,96.60
2018-01-08T21:46:54.810Z,96.60
2018-01-08T21:49:22.450Z,96.50
2018-01-08T21:51:50.299Z,96.50
2018-01-08T21:54:17.343Z,96.40
2018-01-08T21:56:44.210Z,96.60
2018-01-08T21:59:11.821Z,96.70
2018-01-08T22:01:38.714Z,96.70
2018-01-08T22:04:06.411Z,96.70
2018-01-08T22:06:33.281Z,96.40
2018-01-08T22:09:00.238Z,96.60
2018-01-08T22:11:27.119Z,96.80
2018-01-08T22:13:53.958Z,97.30
2018-01-08T22:16:21.595Z,97.10
2018-01-08T22:18:48.451Z,97.00
2018-01-08T22:21:15.314Z,97.00
2018-01-08T22:23:42.947Z,97.20
2018-01-08T22:26:10.543Z,97.10
2018-01-08T22:28:38.166Z,96.90
2018-01-08T22:33:39.430Z,96.90
2018-01-08T22:36:06.319Z,96.90
2018-01-08T22:38:33.906Z,97.00
2018-01-08T22:41:00.782Z,97.00
2018-01-08T22:43:27.651Z,97.20
2018-01-08T22:45:55.261Z,97.10
2018-01-08T22:48:22.126Z,97.10
2018-01-08T22:50:48.997Z,96.90
2018-01-08T22:53:16.599Z,96.50
2018-01-08T22:55:43.454Z,96.50
2018-01-08T22:58:10.364Z,96.50
2018-01-08T23:00:37.952Z,96.50
2018-01-08T23:03:04.764Z,96.50
2018-01-08T23:05:32.346Z,96.50
2018-01-08T23:07:59.182Z,96.60
2018-01-08T23:10:26.043Z,96.40
2018-01-08T23:12:52.874Z,96.40
2018-01-08T23:15:20.626Z,96.20
2018-01-08T23:17:47.462Z,96.10
2018-01-08T23:20:14.337Z,96.20
2018-01-08T23:22:41.243Z,96.10
2018-01-08T23:25:08.807Z,96.30
2018-01-08T23:27:36.461Z,96.10
2018-01-08T23:30:03.283Z,96.10
2018-01-08T23:32:30.165Z,96.10
2018-01-08T23:34:57.047Z,96.00
2018-01-08T23:37:23.902Z,95.80
2018-01-08T23:39:50.754Z,95.40
2018-01-08T23:42:17.633Z,95.70
2018-01-08T23:44:44.513Z,96.40
2018-01-08T23:47:11.460Z,96.20
2018-01-08T23:49:38.330Z,96.10
2018-01-08T23:52:05.202Z,96.10
2018-01-08T23:54:32.093Z,96.00
2018-01-08T23:56:58.962Z,95.70
2018-01-08T23:59:25.814Z,95.70
